Carson City, Michigan
Current Conditions -  °F | °C
As of 7:51 AM on Wednesday 26 Nov 2014 (Local Time) from KAMN Reporting Station
Overcast Overcast  
Wind Chill: 28°   Ceiling: 2500
Heat Index: 28°   Visibility: 10mi
Dew Point: 20°   Wind: 0mph
Humidity: 72%   Direction: NA
Pressure: 30.17"   Gusts: NA
Location:  43.18°N, 84.85°W
Report Text: KAMN 261251Z AUTO 00000KT 10SM OVC025 M02/M06 A3017 RMK AO2 T10201065
Loading
Personal Weather Stations






























Interactive Weather Map New forecast layout! Learn more

10-Day Weather Forecast

Advertisements
Track Severe Weather on mobile